San Antonio North's Hourly Summary for Wednesday, July 11, 2018
Hour Temp
(f)
RH
(%)
Solar Rad.
(MJ/m2)
Rainfall
(in)
Wind
(mph)
7/11/2018 12:00 AM 80 71 0 0 0.41
7/11/2018 1:00 AM 78 76 0 0 0.37
7/11/2018 2:00 AM 77 79 0 0 0.3
7/11/2018 3:00 AM 75 82 0 0 0.11
7/11/2018 4:00 AM 74 87 0 0 0.03
7/11/2018 5:00 AM 74 89 0 0 0.03
7/11/2018 6:00 AM 73 92 0 0 0.01
7/11/2018 7:00 AM 73 93 0.01 0 0.05
7/11/2018 8:00 AM 74 90 0.16 0 0.14
7/11/2018 9:00 AM 77 74 0.76 0 0.25
7/11/2018 10:00 AM 80 71 1 0 0.62
7/11/2018 11:00 AM 82 63 1.8 0 0.37
7/11/2018 12:00 PM 87 54 2.84 0 0.76
7/11/2018 1:00 PM 88 44 3.25 0 0.82
7/11/2018 2:00 PM 89 44 3.3 0 0.83
7/11/2018 3:00 PM 91 39 3.05 0 1.2
7/11/2018 4:00 PM 93 37 3.07 0 1.23
7/11/2018 5:00 PM 93 36 2.43 0 1.69
7/11/2018 6:00 PM 92 36 1.28 0 1.17
7/11/2018 7:00 PM 92 38 1.26 0 1.1
7/11/2018 8:00 PM 91 41 0.56 0 1.09
7/11/2018 9:00 PM 87 44 0.07 0 1
7/11/2018 10:00 PM 84 48 0 0 0.48
7/11/2018 11:00 PM 82 56 0 0 0.26
Data Summary 82 61 24.84 0.00 0.60